Time;durP1;ratioP1;P1;durP2;ratioP2;P2;SDS_P1;SDS_P2;PMS_P1;PMS_P2;Temp;Humidity;BMP_temperature;BMP_pressure;BME280_temperature;BME280_humidity;BME280_pressure;Samples;Min_cycle;Max_cycle;Signal;HPM_P1;HPM_P2
2021/11/02 00:01:16;;;;;;;4.75;1.88;;;;;;;5.50;83.19;99031.31;5022867;28;20462;-79
2021/11/02 00:03:43;;;;;;;5.28;2.30;;;;;;;5.48;83.36;99021.84;5044912;28;20098;-79
2021/11/02 00:06:10;;;;;;;6.63;1.80;;;;;;;5.46;83.22;99019.44;5065565;28;20041;-79
2021/11/02 00:08:37;;;;;;;3.67;1.98;;;;;;;5.47;83.38;99026.53;5019828;28;20064;-78
2021/11/02 00:11:04;;;;;;;2.72;1.63;;;;;;;5.47;83.32;99023.00;5064375;28;20041;-78
2021/11/02 00:13:35;;;;;;;3.17;2.00;;;;;;;5.45;83.55;99022.56;5057435;28;20480;-79
2021/11/02 00:16:04;;;;;;;4.95;1.60;;;;;;;5.45;83.53;99022.56;5061110;28;20525;-79
2021/11/02 00:18:32;;;;;;;4.15;2.00;;;;;;;5.42;83.50;99015.81;5062210;28;20053;-79
2021/11/02 00:21:00;;;;;;;2.47;2.17;;;;;;;5.42;83.37;99017.75;5058961;28;20103;-79
2021/11/02 00:23:35;;;;;;;3.53;2.53;;;;;;;5.41;83.57;99016.97;5024813;28;20124;-79
2021/11/02 00:26:11;;;;;;;4.88;2.08;;;;;;;5.38;83.17;99009.44;5048610;28;20049;-79
2021/11/02 00:28:39;;;;;;;4.05;2.00;;;;;;;5.41;83.55;99008.72;5058889;28;20076;-79
2021/11/02 00:31:06;;;;;;;5.03;1.77;;;;;;;5.40;83.50;99014.59;5059507;28;20044;-79
2021/11/02 00:33:33;;;;;;;6.72;2.05;;;;;;;5.40;83.37;99020.84;5053621;28;20041;-79
2021/11/02 00:36:00;;;;;;;4.45;2.25;;;;;;;5.42;83.17;99012.28;5042475;28;20382;-78
2021/11/02 00:38:27;;;;;;;3.72;1.92;;;;;;;5.39;83.38;99011.03;5061489;28;20040;-78
2021/11/02 00:40:54;;;;;;;5.15;2.65;;;;;;;5.40;83.19;99014.59;5055374;28;20057;-79
2021/11/02 00:43:24;;;;;;;6.10;2.30;;;;;;;5.39;83.35;99010.22;5041937;28;20051;-79
2021/11/02 00:45:51;;;;;;;6.05;1.90;;;;;;;5.38;83.31;99012.19;5057395;28;20037;-79
2021/11/02 00:48:26;;;;;;;4.32;2.30;;;;;;;5.35;83.39;99018.38;5039688;28;20074;-78
2021/11/02 00:50:53;;;;;;;4.65;2.67;;;;;;;5.36;83.50;99009.00;5054582;28;20082;-79
2021/11/02 00:53:20;;;;;;;8.73;2.78;;;;;;;5.37;83.53;99009.78;5034587;28;20056;-79
2021/11/02 00:55:47;;;;;;;5.32;2.08;;;;;;;5.35;83.22;99018.38;5045822;28;20114;-79
2021/11/02 00:58:15;;;;;;;4.50;1.75;;;;;;;5.34;83.19;99013.25;5052180;28;20071;-78
2021/11/02 01:00:43;;;;;;;5.80;1.90;;;;;;;5.33;83.40;99015.19;5056873;28;20649;-78
2021/11/02 01:03:10;;;;;;;6.25;2.00;;;;;;;5.34;83.33;99010.50;5060516;28;20156;-78
2021/11/02 01:05:38;;;;;;;5.88;1.63;;;;;;;5.30;83.21;99007.66;5059823;28;20048;-78
2021/11/02 01:08:05;;;;;;;5.45;1.58;;;;;;;5.30;83.43;99015.06;5057560;28;20107;-78
2021/11/02 01:10:33;;;;;;;6.07;1.58;;;;;;;5.30;83.13;99012.34;5061604;28;20772;-78
2021/11/02 01:13:00;;;;;;;6.53;1.70;;;;;;;5.29;83.28;99006.06;5039274;28;20029;-79
2021/11/02 01:15:29;;;;;;;3.28;1.30;;;;;;;5.24;83.59;99000.81;5034279;28;20217;-79
2021/11/02 01:17:58;;;;;;;3.95;1.70;;;;;;;5.24;83.45;99005.53;5036994;28;20091;-79
2021/11/02 01:20:25;;;;;;;4.38;1.50;;;;;;;5.24;83.53;99000.81;5029494;28;20033;-79
2021/11/02 01:22:53;;;;;;;2.70;1.60;;;;;;;5.22;83.49;99005.06;5054733;28;20041;-79
2021/11/02 01:25:21;;;;;;;3.50;1.60;;;;;;;5.20;83.38;98999.94;5057746;28;20526;-78
2021/11/02 01:27:49;;;;;;;3.42;1.58;;;;;;;5.20;83.43;98997.19;5055158;28;20045;-79
2021/11/02 01:30:16;;;;;;;5.40;1.90;;;;;;;5.18;83.32;99010.47;5055697;28;20086;-79
2021/11/02 01:32:44;;;;;;;6.60;2.28;;;;;;;5.17;83.41;99005.31;5059555;28;20036;-79
2021/11/02 01:35:12;;;;;;;6.00;1.05;;;;;;;5.16;83.46;99007.28;5039433;28;20049;-79
2021/11/02 01:37:39;;;;;;;4.50;1.50;;;;;;;5.15;83.63;99002.94;5039762;28;21975;-79
2021/11/02 01:40:10;;;;;;;2.78;1.23;;;;;;;5.13;83.55;98999.75;5059312;28;20519;-79
2021/11/02 01:42:38;;;;;;;2.53;1.40;;;;;;;5.11;83.64;98996.56;5052578;28;20499;-79
2021/11/02 01:45:08;;;;;;;5.68;1.67;;;;;;;5.12;83.18;98997.34;5042185;28;20052;-79
2021/11/02 01:47:39;;;;;;;4.15;1.40;;;;;;;5.10;83.56;99005.94;5038864;28;20553;-78
2021/11/02 01:50:07;;;;;;;2.42;1.23;;;;;;;5.10;83.56;99011.44;5051149;28;20087;-79
2021/11/02 01:52:34;;;;;;;5.28;1.35;;;;;;;5.09;83.41;99007.09;5055451;28;20075;-79
2021/11/02 01:55:01;;;;;;;3.10;1.30;;;;;;;5.08;83.45;99001.97;5052235;28;20094;-79
2021/11/02 01:57:28;;;;;;;3.78;1.25;;;;;;;5.07;83.57;99001.16;5055837;28;20117;-79
2021/11/02 01:59:56;;;;;;;5.00;2.13;;;;;;;5.08;83.67;99010.19;5035008;28;20645;-79
2021/11/02 02:02:36;;;;;;;2.22;1.60;;;;;;;5.06;83.73;98994.06;5036523;28;20384;-78
2021/11/02 02:05:12;;;;;;;5.10;1.70;;;;;;;5.05;83.73;99008.94;5053441;28;20130;-78
2021/11/02 02:08:07;;;;;;;5.80;1.98;;;;;;;5.03;84.02;99005.75;5056293;28;20056;-79
2021/11/02 02:10:59;;;;;;;1.58;0.95;;;;;;;5.01;83.74;99002.56;5056898;28;20044;-78
2021/11/02 02:13:42;;;;;;;4.35;1.40;;;;;;;5.01;83.87;99004.50;5035673;28;20036;-79
2021/11/02 02:16:21;;;;;;;4.00;1.40;;;;;;;5.01;83.81;99007.25;5056319;28;20056;-79
2021/11/02 02:18:58;;;;;;;4.18;1.08;;;;;;;5.02;83.78;98998.69;5036518;28;20037;-78
2021/11/02 02:21:44;;;;;;;2.30;0.80;;;;;;;5.01;83.76;98991.59;5036166;28;20451;-79
2021/11/02 02:24:17;;;;;;;1.05;0.80;;;;;;;5.03;83.56;98996.75;5056953;28;20163;-79
2021/11/02 02:27:14;;;;;;;2.38;0.98;;;;;;;5.02;83.65;99004.16;5051064;28;20143;-79
2021/11/02 02:29:43;;;;;;;2.38;0.95;;;;;;;5.04;83.41;98995.56;5055931;28;20049;-79
2021/11/02 02:32:16;;;;;;;2.38;0.93;;;;;;;5.02;83.93;99006.09;5054706;28;20052;-79
2021/11/02 02:34:49;;;;;;;3.63;0.90;;;;;;;5.01;83.66;98997.06;5035761;28;20068;-79
2021/11/02 02:37:17;;;;;;;;;;;;;;;4.96;83.74;98989.09;5042408;28;20090;-79
2021/11/02 02:39:46;;;;;;;7.22;1.58;;;;;;;4.96;83.99;99004.75;5059032;28;19929;-79
2021/11/02 02:42:16;;;;;;;3.03;1.25;;;;;;;4.97;83.71;99009.09;5058222;28;20052;-79
2021/11/02 02:44:46;;;;;;;3.97;1.70;;;;;;;4.97;83.51;99000.88;5050884;28;20179;-79
2021/11/02 02:47:16;;;;;;;8.23;1.45;;;;;;;4.96;83.75;98994.59;5058584;28;20041;-79
2021/11/02 02:49:46;;;;;;;3.97;1.40;;;;;;;4.93;83.62;99001.56;5038401;28;20037;-78
2021/11/02 02:52:13;;;;;;;6.88;2.00;;;;;;;4.91;83.90;99003.06;5039017;28;20457;-78
2021/11/02 02:54:43;;;;;;;3.33;1.27;;;;;;;4.90;83.40;99012.44;5059989;28;20081;-79
2021/11/02 02:57:11;;;;;;;4.90;1.50;;;;;;;4.86;83.83;99000.59;5059270;28;20112;-78
2021/11/02 02:59:39;;;;;;;3.53;1.23;;;;;;;4.86;83.64;99003.31;5062391;28;20058;-79
2021/11/02 03:02:11;;;;;;;4.35;2.10;;;;;;;4.84;83.96;99009.13;5038429;28;20052;-78
2021/11/02 03:04:41;;;;;;;3.78;1.05;;;;;;;4.84;84.00;99005.63;5057581;28;20099;-78
2021/11/02 03:07:08;;;;;;;5.20;1.38;;;;;;;4.85;84.10;99004.47;5038411;28;20044;-79
2021/11/02 03:09:34;;;;;;;3.13;1.20;;;;;;;4.83;83.72;99002.09;5053434;28;20041;-79
2021/11/02 03:12:04;;;;;;;2.35;1.27;;;;;;;4.84;83.79;99008.38;5039133;28;20037;-79
2021/11/02 03:18:04;;;;;;;4.43;1.30;;;;;;;4.82;83.97;98999.66;5019073;28;20150;-79
2021/11/02 05:08:11;;;;;;;3.28;1.40;;;;;;;4.66;85.09;99038.00;5058578;28;20044;-79
2021/11/02 05:57:38;;;;;;;2.83;1.42;;;;;;;4.51;86.11;99065.34;5059973;28;20044;-78
2021/11/02 06:00:21;;;;;;;6.18;1.70;;;;;;;4.52;86.43;99075.16;5061410;28;20083;-79
2021/11/02 06:23:15;;;;;;;6.93;1.75;;;;;;;4.47;86.74;99080.88;5055361;28;20052;-78
2021/11/02 06:28:26;;;;;;;4.97;1.90;;;;;;;4.43;86.88;99090.91;5055426;28;20055;-78
2021/11/02 06:31:06;;;;;;;2.53;1.73;;;;;;;4.43;87.07;99079.97;5051192;28;20064;-78
2021/11/02 06:33:44;;;;;;;2.72;1.65;;;;;;;4.44;86.86;99089.78;5057088;28;20040;-78
2021/11/02 06:38:59;;;;;;;6.20;2.33;;;;;;;4.40;87.28;99091.59;5038883;28;20431;-79
2021/11/02 06:55:36;;;;;;;5.57;1.60;;;;;;;4.40;87.49;99102.56;5055038;28;20048;-79
2021/11/02 08:47:21;;;;;;;8.30;3.05;;;;;;;5.04;89.59;99199.34;5057530;28;20785;-80
2021/11/02 08:49:49;;;;;;;6.60;3.10;;;;;;;5.10;89.72;99192.47;5046143;28;20055;-79
2021/11/02 08:52:18;;;;;;;7.40;3.88;;;;;;;5.17;90.23;99203.66;5037527;28;20041;-79
2021/11/02 08:54:48;;;;;;;8.85;4.35;;;;;;;5.26;89.78;99196.09;5037455;28;20150;-80
2021/11/02 08:57:17;;;;;;;8.38;3.45;;;;;;;5.35;89.82;99204.16;5056790;28;20056;-79
2021/11/02 08:59:46;;;;;;;9.63;4.07;;;;;;;5.41;89.91;99197.28;5059306;28;20134;-80
2021/11/02 09:02:22;;;;;;;8.15;3.95;;;;;;;5.44;89.86;99194.66;5053870;28;20048;-80
2021/11/02 09:05:06;;;;;;;13.70;5.68;;;;;;;5.49;89.58;99204.56;5051494;28;20067;-79
2021/11/02 09:07:34;;;;;;;15.73;6.68;;;;;;;5.53;89.49;99200.78;5031228;28;20492;-79
2021/11/02 09:10:16;;;;;;;13.00;5.53;;;;;;;5.54;89.74;99202.38;5044076;28;20048;-79
2021/11/02 09:12:51;;;;;;;15.35;6.05;;;;;;;5.50;89.33;99190.50;5037519;28;20072;-82
2021/11/02 09:15:26;;;;;;;16.95;7.95;;;;;;;5.57;89.55;99194.59;5054892;28;20071;-81
2021/11/02 09:17:55;;;;;;;13.43;6.05;;;;;;;5.56;89.52;99193.78;5045886;28;20120;-81
2021/11/02 09:20:22;;;;;;;16.05;6.57;;;;;;;5.61;89.43;99207.28;5029014;28;20485;-82
2021/11/02 09:22:50;;;;;;;16.92;4.60;;;;;;;5.69;89.47;99208.28;5048570;28;20049;-81
2021/11/02 09:25:18;;;;;;;9.77;4.53;;;;;;;5.62;89.38;99210.81;5050836;28;20120;-82
2021/11/02 09:27:47;;;;;;;11.90;4.90;;;;;;;5.59;89.11;99209.56;5038012;28;20044;-80
2021/11/02 09:30:16;;;;;;;16.23;4.70;;;;;;;5.62;89.08;99219.84;5055427;28;20045;-82
2021/11/02 09:32:48;;;;;;;10.05;4.72;;;;;;;5.62;89.03;99219.03;5050063;28;20121;-81
2021/11/02 09:35:17;;;;;;;14.70;4.60;;;;;;;5.61;89.30;99220.22;5053077;28;20162;-81
2021/11/02 09:37:55;;;;;;;13.77;5.55;;;;;;;5.62;89.02;99225.34;5035752;28;20124;-80
2021/11/02 09:40:28;;;;;;;13.52;5.20;;;;;;;5.62;89.02;99233.56;5049606;28;20045;-81
2021/11/02 09:43:02;;;;;;;13.77;5.65;;;;;;;5.65;89.15;99230.13;5053881;28;20103;-81
2021/11/02 09:46:00;;;;;;;13.35;5.20;;;;;;;5.64;89.04;99230.50;5055026;28;20122;-80
2021/11/02 09:49:02;;;;;;;10.50;5.13;;;;;;;5.63;88.62;99231.63;5028177;28;20086;-80
2021/11/02 09:52:08;;;;;;;9.30;4.60;;;;;;;5.62;89.08;99227.28;5018882;28;20052;-80
2021/11/02 09:55:04;;;;;;;12.48;5.85;;;;;;;5.74;88.90;99228.06;5014129;28;20166;-80
2021/11/02 09:58:06;;;;;;;13.02;5.88;;;;;;;5.80;88.96;99234.09;5053579;28;20036;-82
2021/11/02 10:00:53;;;;;;;8.20;4.30;;;;;;;5.83;88.41;99236.13;5017702;28;20094;-83
2021/11/02 10:04:11;;;;;;;11.98;5.25;;;;;;;5.78;88.32;99228.13;5054498;28;20051;-79
2021/11/02 10:06:58;;;;;;;12.90;5.63;;;;;;;5.82;88.51;99234.53;5053327;28;20048;-80
2021/11/02 10:09:44;;;;;;;12.88;5.80;;;;;;;5.94;88.67;99235.31;5055340;28;20078;-80
2021/11/02 10:12:17;;;;;;;9.35;4.22;;;;;;;5.97;87.94;99240.09;5050771;28;20485;-79
2021/11/02 10:14:55;;;;;;;9.80;4.38;;;;;;;6.00;88.10;99238.59;5048500;28;20289;-81
2021/11/02 10:17:59;;;;;;;9.70;5.00;;;;;;;6.04;88.02;99237.53;5049078;28;20107;-80
2021/11/02 10:20:50;;;;;;;12.77;5.78;;;;;;;6.09;87.88;99244.72;5048960;28;20067;-81
2021/11/02 10:23:25;;;;;;;11.57;4.25;;;;;;;6.13;88.13;99251.13;5035418;28;20164;-81
2021/11/02 10:25:58;;;;;;;9.65;5.10;;;;;;;6.16;88.14;99255.09;5052815;28;20037;-80
2021/11/02 10:28:37;;;;;;;6.10;4.07;;;;;;;6.19;87.03;99252.47;5049624;28;20036;-80
2021/11/02 10:31:25;;;;;;;11.60;4.90;;;;;;;6.16;87.52;99255.09;5045846;28;20056;-80
2021/11/02 10:34:10;;;;;;;6.50;3.78;;;;;;;6.12;87.09;99252.25;5033927;28;20051;-80
2021/11/02 10:36:51;;;;;;;7.78;4.13;;;;;;;6.18;87.65;99250.84;5050052;28;20067;-80
2021/11/02 10:39:35;;;;;;;6.45;3.88;;;;;;;6.28;87.25;99261.31;5047679;28;20100;-84
2021/11/02 10:42:23;;;;;;;6.30;3.85;;;;;;;6.33;87.34;99261.06;5021225;28;22422;-83
2021/11/02 10:45:10;;;;;;;7.20;3.53;;;;;;;6.47;87.56;99261.44;5035814;28;20041;-79
2021/11/02 10:48:04;;;;;;;13.68;6.57;;;;;;;6.52;87.04;99263.91;5056440;28;20058;-79
2021/11/02 10:50:37;;;;;;;4.53;2.90;;;;;;;6.57;87.05;99266.41;5062509;28;20047;-79
2021/11/02 10:53:06;;;;;;;8.38;3.83;;;;;;;6.54;86.82;99260.84;5034474;28;20056;-79
2021/11/02 10:55:54;;;;;;;4.30;3.17;;;;;;;6.52;86.51;99257.63;5034908;28;20127;-79
2021/11/02 10:58:31;;;;;;;6.30;3.10;;;;;;;6.55;86.73;99268.72;5058862;28;20044;-79
2021/11/02 11:01:03;;;;;;;6.15;3.10;;;;;;;6.59;86.56;99269.59;5057141;28;20037;-79
2021/11/02 11:03:31;;;;;;;6.40;3.83;;;;;;;6.58;86.48;99272.72;5057225;28;20051;-79
2021/11/02 11:06:06;;;;;;;4.85;3.33;;;;;;;6.59;86.51;99283.34;5038832;28;20048;-79
2021/11/02 11:08:39;;;;;;;4.60;3.63;;;;;;;6.60;86.65;99276.69;5058218;28;20691;-79
2021/11/02 11:11:11;;;;;;;7.20;3.60;;;;;;;6.66;86.57;99268.97;5040744;28;20045;-79
2021/11/02 11:13:39;;;;;;;3.92;2.83;;;;;;;6.70;86.20;99280.84;5051339;28;20063;-79
2021/11/02 11:16:18;;;;;;;8.98;3.97;;;;;;;6.74;86.78;99277.06;5048893;28;20094;-81
2021/11/02 11:18:48;;;;;;;7.22;4.13;;;;;;;6.90;86.71;99279.00;5037500;28;20079;-82
2021/11/02 11:21:15;;;;;;;5.43;3.05;;;;;;;7.03;86.67;99277.75;5057280;28;20479;-81
2021/11/02 11:23:43;;;;;;;5.57;2.97;;;;;;;7.10;86.43;99286.16;5056696;28;20067;-81
2021/11/02 11:26:10;;;;;;;4.93;3.28;;;;;;;7.07;86.40;99290.41;5038482;28;20060;-82
2021/11/02 11:28:39;;;;;;;5.75;3.13;;;;;;;7.13;86.27;99288.19;5029314;28;20373;-81
2021/11/02 11:31:07;;;;;;;7.25;3.78;;;;;;;7.15;86.13;99297.69;5050884;28;20056;-81
2021/11/02 11:33:35;;;;;;;6.82;3.67;;;;;;;7.14;86.03;99296.09;5060702;28;20063;-81
2021/11/02 11:36:06;;;;;;;8.40;4.75;;;;;;;7.05;86.09;99298.25;5036682;28;20068;-82
2021/11/02 11:38:40;;;;;;;9.80;4.63;;;;;;;7.06;86.34;99294.34;5039393;28;20051;-81
2021/11/02 11:41:09;;;;;;;8.70;5.25;;;;;;;7.14;86.42;99300.81;5052447;28;20083;-81
2021/11/02 11:43:41;;;;;;;5.55;3.67;;;;;;;7.16;86.05;99299.28;5052684;28;20036;-82
2021/11/02 11:46:10;;;;;;;5.75;3.50;;;;;;;7.21;86.16;99300.97;5037173;28;20131;-81
2021/11/02 11:48:42;;;;;;;8.52;4.05;;;;;;;7.23;86.17;99304.94;5052828;28;20045;-82
2021/11/02 11:51:20;;;;;;;5.90;4.03;;;;;;;7.27;86.25;99299.53;5055253;28;20064;-82
2021/11/02 11:53:48;;;;;;;6.57;3.70;;;;;;;7.24;86.15;99305.75;5061398;28;20120;-81
2021/11/02 11:56:18;;;;;;;6.28;3.63;;;;;;;7.23;86.39;99298.66;5059734;28;20117;-81
2021/11/02 11:58:51;;;;;;;5.57;3.65;;;;;;;7.29;86.28;99308.22;5039577;28;20054;-82
2021/11/02 12:01:31;;;;;;;6.28;3.88;;;;;;;7.28;86.31;99310.19;5055608;28;20041;-81
2021/11/02 12:04:21;;;;;;;7.45;3.92;;;;;;;7.29;86.10;99308.22;5059927;28;20068;-81
2021/11/02 12:07:09;;;;;;;5.47;3.88;;;;;;;7.21;86.11;99301.78;5041677;28;20052;-82
2021/11/02 12:09:43;;;;;;;5.70;4.25;;;;;;;7.20;86.15;99299.38;5062510;28;20090;-82
2021/11/02 12:12:10;;;;;;;7.72;4.75;;;;;;;7.20;86.33;99311.16;5037386;28;20084;-80
2021/11/02 12:14:53;;;;;;;5.88;3.85;;;;;;;7.17;86.28;99300.09;5056606;28;20040;-82
2021/11/02 12:17:21;;;;;;;6.85;4.15;;;;;;;7.17;86.19;99305.59;5041059;28;20047;-82
2021/11/02 12:20:05;;;;;;;6.78;4.88;;;;;;;7.16;86.68;99302.03;5043987;28;20044;-82
2021/11/02 12:22:49;;;;;;;7.63;3.75;;;;;;;7.19;87.10;99303.28;5037531;28;20045;-82
2021/11/02 12:25:26;;;;;;;8.18;3.50;;;;;;;7.25;86.94;99308.13;5060584;28;20045;-81
2021/11/02 12:27:55;;;;;;;5.10;3.50;;;;;;;7.32;86.72;99307.53;5025655;28;20883;-82
2021/11/02 12:30:23;;;;;;;6.32;3.67;;;;;;;7.40;86.92;99305.72;5055310;28;20048;-81
2021/11/02 12:32:52;;;;;;;5.47;4.10;;;;;;;7.48;86.76;99305.53;5057098;28;20062;-82
2021/11/02 12:35:45;;;;;;;5.45;3.55;;;;;;;7.62;86.95;99316.06;5044222;28;20033;-82
2021/11/02 12:38:13;;;;;;;6.70;3.28;;;;;;;7.71;87.10;99306.44;5042180;28;20083;-83
2021/11/02 12:40:42;;;;;;;6.35;3.28;;;;;;;7.79;86.77;99307.38;5044655;28;20134;-82
2021/11/02 12:43:27;;;;;;;5.22;4.50;;;;;;;7.87;86.83;99307.16;5062208;28;20048;-83
2021/11/02 12:46:02;;;;;;;3.60;2.72;;;;;;;7.98;86.52;99307.38;5037772;28;20048;-82
2021/11/02 12:48:32;;;;;;;7.93;2.70;;;;;;;8.04;86.55;99321.69;5038437;28;21951;-82
2021/11/02 12:51:20;;;;;;;3.95;2.55;;;;;;;8.08;86.31;99323.34;5059098;28;20121;-81
2021/11/02 12:53:52;;;;;;;6.25;2.63;;;;;;;8.21;86.52;99316.50;5045054;28;20040;-81
2021/11/02 12:56:21;;;;;;;5.03;3.03;;;;;;;8.35;86.35;99321.53;5044607;28;20123;-83
2021/11/02 12:58:59;;;;;;;5.50;3.03;;;;;;;8.45;85.89;99316.22;5043183;28;20090;-81
2021/11/02 13:01:35;;;;;;;3.95;2.80;;;;;;;8.55;85.58;99323.91;5059317;28;20118;-80
2021/11/02 13:04:07;;;;;;;5.13;2.85;;;;;;;8.73;85.60;99321.47;5057594;28;20045;-80
2021/11/02 13:06:50;;;;;;;3.70;2.75;;;;;;;8.89;84.89;99319.41;5058988;28;20044;-81
2021/11/02 13:09:34;;;;;;;5.70;3.35;;;;;;;9.10;84.87;99319.75;5043009;28;20037;-81
2021/11/02 13:12:09;;;;;;;4.32;3.05;;;;;;;9.28;84.78;99313.69;5045033;28;20032;-80
2021/11/02 13:14:51;;;;;;;6.82;3.72;;;;;;;9.40;84.44;99317.03;5044164;28;20043;-80
2021/11/02 13:17:24;;;;;;;9.63;3.75;;;;;;;9.48;84.49;99309.63;5038262;28;20033;-81
2021/11/02 13:19:54;;;;;;;6.03;3.20;;;;;;;9.60;84.83;99324.06;5036085;28;20086;-81
2021/11/02 13:22:23;;;;;;;6.20;3.38;;;;;;;9.65;84.25;99314.63;5044271;28;20040;-81
2021/11/02 13:25:07;;;;;;;6.75;3.40;;;;;;;9.68;83.27;99327.72;5033118;28;20118;-80
2021/11/02 13:27:40;;;;;;;5.95;3.80;;;;;;;9.75;83.30;99330.56;5057249;28;20053;-80
2021/11/02 13:30:35;;;;;;;4.07;3.33;;;;;;;9.75;82.74;99325.03;5049223;28;20049;-80
2021/11/02 13:33:12;;;;;;;8.30;3.80;;;;;;;9.73;82.71;99324.63;5053330;28;20102;-80
2021/11/02 13:35:45;;;;;;;7.25;3.42;;;;;;;9.76;82.66;99330.22;5043789;28;20741;-81
2021/11/02 13:38:33;;;;;;;8.68;4.20;;;;;;;9.83;82.27;99321.19;5053856;28;20041;-79
2021/11/02 13:41:16;;;;;;;5.72;3.45;;;;;;;9.89;81.67;99319.72;5062661;28;20110;-80
2021/11/02 13:43:48;;;;;;;7.00;3.65;;;;;;;9.99;82.15;99316.28;5057092;28;20480;-80
2021/11/02 13:46:19;;;;;;;4.85;3.50;;;;;;;10.11;82.01;99315.25;5059443;28;20449;-79
2021/11/02 13:48:47;;;;;;;24.90;5.35;;;;;;;10.22;82.24;99311.44;5034059;28;20370;-80
2021/11/02 13:51:16;;;;;;;6.00;3.60;;;;;;;10.31;82.45;99311.16;5043111;28;20052;-81
2021/11/02 13:53:43;;;;;;;5.72;3.65;;;;;;;10.42;82.12;99305.75;5059018;28;20110;-81
2021/11/02 13:56:16;;;;;;;5.47;3.45;;;;;;;10.48;81.50;99310.56;5062497;28;20037;-80
2021/11/02 13:58:43;;;;;;;;;;;;;;;10.55;80.63;99304.31;5062454;28;20109;-80
2021/11/02 14:01:40;;;;;;;7.22;2.60;;;;;;;10.71;81.40;99305.66;5061038;28;19959;-79
2021/11/02 14:04:32;;;;;;;6.28;1.70;;;;;;;10.75;80.71;99308.47;5056285;28;20053;-79
2021/11/02 14:07:09;;;;;;;3.20;1.10;;;;;;;10.75;80.78;99311.25;5051898;28;20432;-80
2021/11/02 14:09:42;;;;;;;6.68;2.60;;;;;;;10.79;80.75;99310.09;5037166;28;20045;-79
2021/11/02 14:12:32;;;;;;;6.47;2.10;;;;;;;10.83;80.31;99312.88;5045143;28;20037;-79
2021/11/02 14:15:11;;;;;;;4.43;1.25;;;;;;;10.92;79.69;99296.75;5058759;28;20623;-80
2021/11/02 14:17:39;;;;;;;5.43;1.38;;;;;;;10.96;79.96;99309.44;5046110;28;20041;-79
2021/11/02 14:20:07;;;;;;;7.45;1.10;;;;;;;10.92;79.64;99316.13;5041968;28;20033;-79
2021/11/02 14:22:49;;;;;;;5.47;0.90;;;;;;;10.85;78.54;99308.56;5041251;28;20051;-80
2021/11/02 14:25:17;;;;;;;2.38;1.05;;;;;;;10.87;78.65;99316.50;5058145;28;20064;-80
2021/11/02 14:27:47;;;;;;;7.63;1.80;;;;;;;10.92;78.43;99316.94;5058559;28;20041;-79
2021/11/02 14:30:32;;;;;;;3.83;1.60;;;;;;;10.90;75.79;99316.53;5057809;28;20135;-80
2021/11/02 14:33:18;;;;;;;7.20;2.28;;;;;;;10.84;77.57;99312.50;5056759;28;20120;-80
2021/11/02 14:36:04;;;;;;;5.60;2.30;;;;;;;10.79;76.49;99315.63;5044193;28;20044;-80
2021/11/02 14:38:53;;;;;;;5.47;1.80;;;;;;;10.67;75.36;99315.13;5055972;28;20052;-80
2021/11/02 14:41:33;;;;;;;3.45;1.50;;;;;;;10.56;76.78;99316.97;5053307;28;20740;-79
2021/11/02 14:44:19;;;;;;;2.35;1.58;;;;;;;10.37;76.22;99315.19;5057120;28;20104;-79
2021/11/02 14:46:47;;;;;;;6.18;1.05;;;;;;;10.27;76.44;99305.59;5034020;28;20068;-80
2021/11/02 14:49:41;;;;;;;2.15;0.77;;;;;;;10.11;75.69;99307.72;5038859;28;20047;-80
2021/11/02 14:52:10;;;;;;;6.15;1.55;;;;;;;10.09;76.20;99315.63;5037230;28;20053;-80
2021/11/02 14:54:45;;;;;;;7.10;2.00;;;;;;;10.03;76.20;99317.13;5057859;28;20048;-80
2021/11/02 14:57:18;;;;;;;3.08;1.13;;;;;;;9.97;76.17;99315.88;5055984;28;20723;-80
2021/11/02 14:59:55;;;;;;;4.53;2.53;;;;;;;9.92;76.29;99320.94;5060576;28;20395;-80
2021/11/02 15:02:40;;;;;;;4.05;1.10;;;;;;;9.87;76.09;99322.06;5035178;28;20734;-80
2021/11/02 15:05:10;;;;;;;4.15;1.02;;;;;;;9.83;76.42;99323.97;5055769;28;20041;-80
2021/11/02 15:07:41;;;;;;;7.00;1.27;;;;;;;9.80;76.39;99330.25;5043493;28;20476;-80
2021/11/02 15:10:11;;;;;;;2.75;1.55;;;;;;;9.77;76.40;99337.31;5055756;28;20043;-80
2021/11/02 15:12:39;;;;;;;6.88;3.10;;;;;;;9.73;76.47;99336.47;5035637;28;20389;-80
2021/11/02 15:15:06;;;;;;;4.10;1.25;;;;;;;9.70;76.52;99336.41;5058543;28;20048;-80
2021/11/02 15:17:34;;;;;;;3.08;1.35;;;;;;;9.63;76.38;99330.81;5023465;28;20098;-80
2021/11/02 15:20:23;;;;;;;3.65;1.30;;;;;;;9.58;76.42;99331.13;5055125;28;20040;-80
2021/11/02 15:22:50;;;;;;;5.75;2.20;;;;;;;9.53;76.69;99337.75;5056151;28;20044;-80
2021/11/02 15:25:18;;;;;;;3.00;1.05;;;;;;;9.50;76.62;99343.25;5061273;28;20048;-80
2021/11/02 15:27:45;;;;;;;4.40;1.13;;;;;;;9.47;76.67;99341.22;5041104;28;20060;-80
2021/11/02 15:30:14;;;;;;;6.45;1.88;;;;;;;9.41;76.75;99345.47;5063504;28;20076;-80
2021/11/02 15:32:46;;;;;;;4.00;1.23;;;;;;;9.37;76.83;99344.63;5058374;28;20537;-80
2021/11/02 15:35:15;;;;;;;6.00;1.88;;;;;;;9.34;77.00;99345.34;5055303;28;20041;-80
2021/11/02 15:37:48;;;;;;;7.10;2.42;;;;;;;9.30;76.96;99341.72;5055511;28;20060;-80
2021/11/02 15:40:24;;;;;;;4.75;2.22;;;;;;;9.29;77.14;99351.19;5051472;28;20564;-79
2021/11/02 15:42:53;;;;;;;5.35;2.33;;;;;;;9.28;77.14;99346.81;5054935;28;20106;-78
2021/11/02 15:45:35;;;;;;;11.63;2.35;;;;;;;9.28;77.30;99352.34;5062278;28;20074;-78
2021/11/02 15:48:07;;;;;;;8.75;2.28;;;;;;;9.29;77.53;99348.44;5041906;28;20047;-81
2021/11/02 15:50:37;;;;;;;6.72;1.85;;;;;;;9.29;77.50;99348.44;5041031;28;20054;-83
2021/11/02 15:53:08;;;;;;;5.07;1.50;;;;;;;9.32;77.42;99353.22;5042945;28;20769;-84
2021/11/02 15:55:37;;;;;;;5.68;1.73;;;;;;;9.30;77.51;99355.53;5041133;28;20052;-82
2021/11/02 15:58:07;;;;;;;3.75;1.75;;;;;;;9.28;77.56;99352.34;5030046;28;20049;-82
2021/11/02 16:00:37;;;;;;;6.78;3.55;;;;;;;9.27;77.52;99359.03;5045123;28;20099;-82
2021/11/02 16:03:05;;;;;;;3.63;2.08;;;;;;;9.26;77.60;99349.16;5043662;28;20091;-82
2021/11/02 16:05:34;;;;;;;8.18;2.00;;;;;;;9.25;77.63;99358.63;5038223;28;20064;-82
2021/11/02 16:08:20;;;;;;;3.00;1.40;;;;;;;9.21;77.47;99371.56;5047393;28;20037;-82
2021/11/02 16:10:53;;;;;;;4.35;2.08;;;;;;;9.18;77.74;99368.41;5054753;28;20057;-82
2021/11/02 16:13:27;;;;;;;6.32;1.80;;;;;;;9.14;77.69;99375.81;5040312;28;20124;-82
2021/11/02 16:15:54;;;;;;;3.70;2.05;;;;;;;9.12;77.74;99375.38;5042748;28;20044;-82
2021/11/02 16:18:32;;;;;;;;;;;;;;;9.03;78.08;99377.59;5061623;28;20147;-82
2021/11/02 16:21:00;;;;;;;;;;;;;;;8.97;78.05;99375.50;5052620;28;19925;-83
2021/11/02 16:23:39;;;;;;;3.75;1.30;;;;;;;8.90;77.91;99381.69;5045584;28;19924;-82
2021/11/02 16:26:22;;;;;;;2.78;1.25;;;;;;;8.87;77.82;99374.13;5029582;28;20053;-82
2021/11/02 16:28:49;;;;;;;3.72;1.60;;;;;;;8.83;77.96;99381.56;5053640;28;20032;-80
2021/11/02 16:31:27;;;;;;;8.07;2.50;;;;;;;8.80;78.10;99387.00;5053769;28;20076;-82
2021/11/02 16:33:55;;;;;;;2.75;1.42;;;;;;;8.74;78.02;99381.00;5059141;28;20507;-82
2021/11/02 16:36:31;;;;;;;2.42;0.90;;;;;;;8.71;78.19;99390.00;5049118;28;20044;-82
2021/11/02 16:39:19;;;;;;;5.68;1.15;;;;;;;8.68;78.16;99390.75;5055106;28;20048;-81
2021/11/02 16:41:51;;;;;;;2.92;0.90;;;;;;;8.63;78.37;99393.78;5043732;28;20151;-81
2021/11/02 16:44:40;;;;;;;4.05;1.35;;;;;;;8.61;78.57;99398.06;5054974;28;20069;-82
2021/11/02 16:47:10;;;;;;;2.05;0.95;;;;;;;8.60;78.53;99399.25;5039213;28;20489;-81
2021/11/02 16:49:39;;;;;;;2.75;1.35;;;;;;;8.60;78.93;99400.06;5040053;28;20500;-82
2021/11/02 16:52:09;;;;;;;3.33;1.23;;;;;;;8.63;78.92;99407.56;5044553;28;20091;-81
2021/11/02 16:54:39;;;;;;;4.30;1.58;;;;;;;8.64;79.29;99405.63;5023486;28;20074;-81
2021/11/02 16:57:19;;;;;;;3.55;1.60;;;;;;;8.63;79.28;99404.81;5058109;28;20091;-82
2021/11/02 16:59:55;;;;;;;8.88;2.72;;;;;;;8.63;79.20;99413.09;5059067;28;20124;-82
2021/11/02 17:02:22;;;;;;;;;;;;;;;8.61;79.35;99415.44;5061127;28;20087;-81
2021/11/02 17:05:08;;;;;;;14.10;3.55;;;;;;;8.58;79.46;99410.63;5059424;28;20352;-83
2021/11/02 17:07:45;;;;;;;8.38;2.95;;;;;;;8.56;79.12;99422.03;5055844;28;20047;-82
2021/11/02 17:10:25;;;;;;;13.82;4.05;;;;;;;8.52;79.29;99421.16;5045237;28;20728;-83
2021/11/02 17:12:53;;;;;;;5.93;2.47;;;;;;;8.47;79.18;99423.44;5061023;28;20045;-81
2021/11/02 17:15:29;;;;;;;8.20;2.65;;;;;;;8.43;79.44;99428.06;5060020;28;20053;-78
2021/11/02 17:17:56;;;;;;;;;;;;;;;8.36;79.59;99416.91;5055111;28;20076;-78
2021/11/02 17:20:24;;;;;;;9.90;3.35;;;;;;;8.33;79.33;99436.91;5059702;28;19932;-79
2021/11/02 17:22:52;;;;;;;8.50;3.22;;;;;;;8.27;79.52;99430.91;5019193;28;20041;-78